Thornburg, VA (22565)

7:04 AM EDT on August 29, 2015 (GMT -0400)
Finney Estates | | Change Station
CLOSE
Current Station
Personal Weather Station
Location: Spotsylvania, VA
Elevation: 276 ft
Nearby Weather Stations

Elev 276 ft 38.14 °N, 77.58 °W | Updated 2 seconds ago

Partly Cloudy
Partly Cloudy
59.9 °F
Feels Like 59.9 °F
N
0.0
Wind Variable Wind from East
Gusts 0.0 mph

Today
High -- | Low -- °F
--% Chance of Precip.
Yesterday
High -- | Low -- °F
Precip. -- in
6:36 AM 7:44 PM
Full, 100% visible
Pressure 30.20 in
Visibility 10.0 miles
Clouds Scattered Clouds 7000 ft
Scattered Clouds 8000 ft
Dew Point 58 °F
Humidity 93%
Rainfall 0.00 in
Snow Depth Not available.
UV 0.0 out of 12
Pollen 8.70 out of 12
Air Quality Not available.
Flu Activity Not available.
METAR KEZF 291055Z AUTO 00000KT 10SM SCT070 SCT080 18/17 A3020 RMK AO2 T01750174
Pressure 30.20 in
Visibility 10.0 miles
Clouds Scattered Clouds 7000 ft
Scattered Clouds 8000 ft
Dew Point 58 °F
Humidity 93%
Rainfall 0.00 in
Snow Depth Not available.
UV 0.0 out of 12
Pollen 8.70 out of 12
Air Quality Not available.
Flu Activity Not available.
METAR KEZF 291055Z AUTO 00000KT 10SM SCT070 SCT080 18/17 A3020 RMK AO2 T01750174

10-Day Weather Forecast

×

Almanac

Astronomy

Aug. 29, 2015 Rise Set
Actual Time
Civil Twilight
Nautical Twilight
Astronomical Twilight
Moon
Length of Visible Light
Length of Day
Tomorrow will be .
, % of the Moon is Illuminated

Today's Extremes

State Highs State Lows

Community

WunderPhotos

Upload Photos

1,850,651 photos uploaded!

WunderBlogs® & News

Nearby

Air Quality

  Air Quality AQ Index Pollutant
Not available.

Snow Depth

Station Depth Elevation

Earthquake Activity

City Distance Mag. Time & Date
Minimum magnitude displayed is 2.5.

Coastal Water Temperatures

Place Temperature

Stations

Nearby Weather Stations

Station Location Temp. Windchill Dew Point Humidity Wind Precip. Elev Updated Type